Flight Track Log - Related Links

Times and Time Zones

All times are in EDT time to prevent confusion due to time zone crossing. See the SKW5476 flight status page for this flight to view local times or setup timezone preferences in your user account.

Time Position Orientation Groundspeed Altitude Reporting Facility
EDT Latitude Longitude Course Direction KTS MPH feet Rate Location/Type
Sun 05:35:12 PM 44.2997 -121.3022 293° West 179 206 7,800  Level Seattle Center
Sun 05:36:00 PM 44.3606 -121.4606 324° Northwest  Level FlightAware Approximate
Sun 05:36:13 PM 44.3364 -121.3625 310° West 202 232 9,600  Level Seattle Center
Sun 05:37:00 PM 44.3948 -121.5327 315° West  Level FlightAware Approximate
Sun 05:37:13 PM 44.3792 -121.4231 315° West 216 249 11,500  Level Seattle Center
Sun 05:38:00 PM 44.4404 -121.5966 315° West  Level FlightAware Approximate
Sun 05:38:14 PM 44.4208 -121.4886 312° West 224 258 13,600  Level Seattle Center
Sun 05:39:15 PM 44.4592 -121.5533 310° West 231 266 14,800 1,131 Climbing Seattle Center
Sun 05:40:16 PM 44.5064 -121.6261 312° West 249 287 15,900 590 Climbing Seattle Center
Sun 05:41:17 PM 44.5581 -121.7106 311° West 280 322 16,000 49 Climbing Seattle Center
Sun 05:42:18 PM 44.6211 -121.8156 310° West 291 335 16,000  Level Seattle Center
Sun 05:43:19 PM 44.6742 -121.8997 312° West 288 331 16,000  Level Seattle Center
Sun 05:44:19 PM 44.7267 -121.9889 310° West 291 335 16,000 -960 Level Seattle Center
Sun 05:46:14 PM 44.8350 -122.1636 311° West 329 379 13,200 -1,620 Descending Seattle Center
Sun 05:47:02 PM 44.8783 -122.2372 310° West 319 367 11,600 -2,029 Descending Seattle Center
Sun 05:47:22 PM 44.8972 -122.2647 314° West 320 368 10,900 -764 Descending Seattle Center
Sun 05:47:57 PM 44.9269 -122.3150 310° West 282 325 10,900 -590 Level Seattle Center
Sun 05:48:23 PM 44.9558 -122.3314 338° Northwest 290 334 10,300 -1,475 Descending Seattle Center
Sun 05:48:58 PM 44.9992 -122.3497 343° North 279 321 9,400 -1,672 Descending Seattle Center
Sun 05:49:24 PM 45.0289 -122.3628 343° North 276 318 8,600 -1,636 Descending Seattle Center
Sun 05:50:04 PM 45.0897 -122.3892 343° North 291 335 7,600 -1,475 Descending Seattle Center
Sun 05:50:25 PM 45.1053 -122.3958 343° North 284 327 7,100 -590 Descending Seattle Center
Sun 05:51:05 PM 45.1608 -122.4183 344° North 266 306 7,000 -197 Descending Seattle Center
Sun 05:51:26 PM 45.1764 -122.4239 346° North 272 313 6,900 -273 Descending Seattle Center
Sun 05:52:11 PM 45.2319 -122.4475 343° North 243 280 6,700 -500 Descending Seattle Center
Sun 05:52:26 PM 45.2411 -122.4511 344° North 250 288 6,400 -1,475 Descending Seattle Center
Sun 05:53:12 PM 45.2928 -122.4903 332° Northwest 246 283 5,200 -1,475 Descending Seattle Center
Sun 05:53:27 PM 45.3008 -122.4986 324° Northwest 251 289 4,900 -1,418 Descending Seattle Center
Sun 05:54:07 PM 45.3447 -122.5333 331° Northwest 232 267 3,900 -1,279 Descending Seattle Center
Sun 05:54:28 PM 45.3567 -122.5439 328° Northwest 238 274 3,600 -818 Descending Seattle Center
Sun 05:55:13 PM 45.4053 -122.5856 329° Northwest 218 251 3,000 -590 Descending Seattle Center
Sun 05:55:29 PM 45.4183 -122.5975 327° Northwest 223 257 3,000 -358 Level Seattle Center
Sun 05:56:20 PM 45.4600 -122.6311 331° Northwest 207 238 2,600 -536 Descending Seattle Center
Sun 05:57:21 PM 45.5094 -122.6508 344° North 173 199 2,000 -727 Descending Seattle Center
Sun 05:58:32 PM 45.5583 -122.6558 356° North 177 204 1,000 -545 Descending Seattle Center
Sun 05:59:33 PM 45.5808 -122.6253 44° Northeast 164 189 800 -197 Descending Seattle Center

Login

Don't have an account? Register now (free) for customized features, flight alerts, and more!